createdAt,value
2022-09-10T00:01:00.304Z,100138.25
2022-09-10T00:03:27.354Z,100140.84
2022-09-10T00:05:54.067Z,100146.97
2022-09-10T00:08:21.823Z,100143.53
2022-09-10T00:10:50.625Z,100132.16
2022-09-10T00:13:20.484Z,100136.53
2022-09-10T00:15:50.335Z,100132.09
2022-09-10T00:18:19.101Z,100135.50
2022-09-10T00:20:52.327Z,100132.09
2022-09-10T00:23:22.010Z,100137.28
2022-09-10T00:25:49.341Z,100128.41
2022-09-10T00:28:16.340Z,100123.09
2022-09-10T00:30:45.538Z,100128.41
2022-09-10T00:33:13.920Z,100121.34
2022-09-10T00:35:40.975Z,100115.16
2022-09-10T00:38:09.454Z,100110.75
2022-09-10T00:40:38.156Z,100117.81
2022-09-10T00:43:15.375Z,100118.66
2022-09-10T00:45:44.045Z,100109.06
2022-09-10T00:48:18.444Z,100108.34
2022-09-10T00:50:48.600Z,100103.00
2022-09-10T00:53:21.950Z,100104.84
2022-09-10T00:55:53.914Z,100097.81
2022-09-10T00:58:23.609Z,100097.88
2022-09-10T01:00:55.011Z,100101.31
2022-09-10T01:03:25.388Z,100095.97
2022-09-10T01:05:52.623Z,100088.75
2022-09-10T01:08:20.761Z,100094.06
2022-09-10T01:10:59.747Z,100087.06
2022-09-10T01:14:13.062Z,100085.09
2022-09-10T01:16:56.963Z,100087.91
2022-09-10T01:19:58.302Z,100089.69
2022-09-10T01:22:32.506Z,100087.00
2022-09-10T01:25:22.642Z,100083.47
2022-09-10T01:27:53.766Z,100083.47
2022-09-10T01:30:24.424Z,100082.50
2022-09-10T01:33:06.483Z,100074.50
2022-09-10T01:35:57.035Z,100071.06
2022-09-10T01:38:31.770Z,100076.22
2022-09-10T01:40:59.122Z,100068.47
2022-09-10T01:43:29.026Z,100071.84
2022-09-10T01:46:21.992Z,100065.56
2022-09-10T01:49:13.877Z,100049.75
2022-09-10T01:51:40.666Z,100046.41
2022-09-10T01:54:11.453Z,100048.88
2022-09-10T01:57:01.186Z,100040.06
2022-09-10T01:59:37.338Z,100039.22
2022-09-10T02:02:37.202Z,100038.31
2022-09-10T02:05:06.313Z,100024.19
2022-09-10T02:07:35.802Z,100013.53
2022-09-10T02:10:06.289Z,100023.22
2022-09-10T02:12:37.124Z,100014.41
2022-09-10T02:15:28.730Z,100010.66
2022-09-10T02:18:11.925Z,100016.88
2022-09-10T02:20:39.487Z,100016.13
2022-09-10T02:23:07.343Z,100017.03
2022-09-10T02:25:37.383Z,100011.56
2022-09-10T02:28:06.937Z,100013.31
2022-09-10T02:30:33.720Z,100013.13
2022-09-10T02:33:00.464Z,100006.94
2022-09-10T02:35:27.310Z,100008.81
2022-09-10T02:37:54.729Z,99998.22
2022-09-10T02:40:21.561Z,100002.59
2022-09-10T02:42:48.335Z,100005.06
2022-09-10T02:45:20.633Z,100001.47
2022-09-10T02:47:47.607Z,99991.56
2022-09-10T02:50:16.021Z,100000.34
2022-09-10T02:52:45.706Z,100000.34
2022-09-10T02:55:13.962Z,100003.03
2022-09-10T02:57:42.215Z,100002.03
2022-09-10T03:00:10.016Z,100000.22
2022-09-10T03:02:37.312Z,99994.03
2022-09-10T03:05:05.010Z,99994.16
2022-09-10T03:07:32.339Z,99997.81
2022-09-10T03:09:59.064Z,100000.22
2022-09-10T03:12:27.209Z,100003.81
2022-09-10T03:14:53.980Z,100001.19
2022-09-10T03:17:22.711Z,100008.88
2022-09-10T03:19:49.985Z,100007.16
2022-09-10T03:22:16.890Z,100008.16
2022-09-10T03:24:43.607Z,100011.41
2022-09-10T03:27:10.457Z,100014.19
2022-09-10T03:29:37.306Z,100000.81
2022-09-10T03:32:04.104Z,99989.38
2022-09-10T03:34:31.041Z,99983.94
2022-09-10T03:36:58.675Z,99980.38
2022-09-10T03:39:25.508Z,99969.78
2022-09-10T03:41:52.245Z,99969.78
2022-09-10T03:44:19.763Z,99972.22
2022-09-10T03:46:48.801Z,99972.28
2022-09-10T03:49:17.703Z,99963.38
2022-09-10T03:51:44.584Z,99966.69
2022-09-10T03:54:14.018Z,99970.97
2022-09-10T03:56:42.072Z,99963.91
2022-09-10T03:59:08.834Z,99966.38
2022-09-10T04:01:37.005Z,99969.03
2022-09-10T04:04:06.236Z,99973.31
2022-09-10T04:06:33.013Z,99972.34
2022-09-10T04:09:01.286Z,99969.56
2022-09-10T04:11:28.960Z,99964.44
2022-09-10T04:13:57.683Z,99960.72
2022-09-10T04:16:25.469Z,99956.19
2022-09-10T04:18:52.373Z,99948.44
2022-09-10T04:21:20.282Z,99951.72
2022-09-10T04:23:54.143Z,99947.28
2022-09-10T04:26:21.173Z,99956.06
2022-09-10T04:28:49.910Z,99951.59
2022-09-10T04:31:17.690Z,99948.94
2022-09-10T04:33:45.361Z,99948.75
2022-09-10T04:36:13.016Z,99951.34
2022-09-10T04:38:41.730Z,99940.56
2022-09-10T04:41:10.658Z,99940.25
2022-09-10T04:43:37.956Z,99933.97
2022-09-10T04:46:06.112Z,99930.53
2022-09-10T04:48:35.101Z,99936.34
2022-09-10T04:51:19.632Z,99936.34
2022-09-10T04:53:52.246Z,99939.00
2022-09-10T04:56:21.891Z,99929.91
2022-09-10T04:58:49.286Z,99935.22
2022-09-10T05:01:16.107Z,99921.88
2022-09-10T05:03:44.871Z,99934.16
2022-09-10T05:06:12.322Z,99926.97
2022-09-10T05:08:39.764Z,99929.13
2022-09-10T05:11:06.678Z,99916.44
2022-09-10T05:13:33.644Z,99924.06
2022-09-10T05:16:01.673Z,99923.22
2022-09-10T05:18:30.288Z,99929.50
2022-09-10T05:20:57.528Z,99934.53
2022-09-10T05:23:24.370Z,99928.25
2022-09-10T05:25:52.983Z,99930.00
2022-09-10T05:28:20.858Z,99929.88
2022-09-10T05:30:51.553Z,99926.16
2022-09-10T05:33:22.098Z,99926.94
2022-09-10T05:35:52.746Z,99929.81
2022-09-10T05:38:21.188Z,99933.25
2022-09-10T05:40:48.758Z,99928.88
2022-09-10T05:43:15.491Z,99931.41
2022-09-10T05:45:44.005Z,99927.66
2022-09-10T05:48:10.868Z,99938.19
2022-09-10T05:50:38.543Z,99937.41
2022-09-10T05:53:05.688Z,99935.69
2022-09-10T05:55:33.343Z,99941.75
2022-09-10T05:58:00.729Z,99940.84
2022-09-10T06:00:27.899Z,99937.28
2022-09-10T06:03:00.297Z,99937.41
2022-09-10T06:05:50.503Z,99933.03
2022-09-10T06:08:23.717Z,99941.81
2022-09-10T06:11:00.391Z,99929.66
2022-09-10T06:13:30.300Z,99942.78
2022-09-10T06:15:58.063Z,99943.56
2022-09-10T06:18:27.446Z,99942.00
2022-09-10T06:21:08.829Z,99941.94
2022-09-10T06:23:39.254Z,99935.75
2022-09-10T06:26:09.548Z,99938.53
2022-09-10T06:28:37.511Z,99930.38
2022-09-10T06:31:06.467Z,99934.69
2022-09-10T06:33:35.314Z,99927.59
2022-09-10T06:36:03.853Z,99917.72
2022-09-10T06:38:33.763Z,99917.06
2022-09-10T06:41:04.796Z,99917.94
2022-09-10T06:43:38.683Z,99919.97
2022-09-10T06:46:56.730Z,99914.53
2022-09-10T06:49:11.734Z,99910.06
2022-09-10T06:51:39.850Z,99906.44
2022-09-10T06:54:08.687Z,99911.75
2022-09-10T06:56:35.461Z,99920.66
2022-09-10T06:59:04.062Z,99927.53
2022-09-10T07:01:35.748Z,99929.53
2022-09-10T07:04:02.857Z,99927.66
2022-09-10T07:06:35.184Z,99923.25
2022-09-10T07:09:10.750Z,99932.75
2022-09-10T07:11:50.185Z,99927.72
2022-09-10T07:14:18.114Z,99932.97
2022-09-10T07:16:46.320Z,99936.84
2022-09-10T07:19:15.170Z,99936.63
2022-09-10T07:21:47.180Z,99934.97
2022-09-10T07:24:15.785Z,99927.03
2022-09-10T07:26:52.434Z,99924.03
2022-09-10T07:29:19.555Z,99919.34
2022-09-10T07:31:48.208Z,99934.44
2022-09-10T07:34:20.497Z,99928.25
2022-09-10T07:36:48.419Z,99928.25
2022-09-10T07:39:15.540Z,99924.53
2022-09-10T07:41:42.924Z,99929.56
2022-09-10T07:44:12.511Z,99916.22
2022-09-10T07:46:42.408Z,99909.19
2022-09-10T07:49:12.151Z,99918.94
2022-09-10T07:51:40.799Z,99911.63
2022-09-10T07:54:07.670Z,99911.63
2022-09-10T07:56:44.441Z,99918.72
2022-09-10T07:59:13.799Z,99911.47
2022-09-10T08:01:46.055Z,99912.47
2022-09-10T08:04:15.372Z,99919.25
2022-09-10T08:06:42.127Z,99917.53
2022-09-10T08:09:09.508Z,99916.53
2022-09-10T08:11:41.736Z,99913.75
2022-09-10T08:14:13.356Z,99922.69
2022-09-10T08:16:44.335Z,99906.13
2022-09-10T08:19:15.017Z,99909.34
2022-09-10T08:21:42.083Z,99909.50
2022-09-10T08:24:10.540Z,99910.31
2022-09-10T08:26:39.158Z,99900.69
2022-09-10T08:29:06.955Z,99904.44
2022-09-10T08:31:34.729Z,99897.38
2022-09-10T08:34:11.515Z,99893.75
2022-09-10T08:36:41.082Z,99893.72
2022-09-10T08:39:08.578Z,99895.22
2022-09-10T08:41:39.064Z,99890.69
2022-09-10T08:44:21.317Z,99886.91
2022-09-10T08:46:56.510Z,99882.94
2022-09-10T08:49:34.096Z,99891.13
2022-09-10T08:52:07.823Z,99885.59
2022-09-10T08:54:40.265Z,99879.59
2022-09-10T08:57:32.335Z,99885.09
2022-09-10T09:00:01.596Z,99882.38
2022-09-10T09:02:49.290Z,99875.47
2022-09-10T09:05:23.763Z,99865.19
2022-09-10T09:07:54.434Z,99864.16
2022-09-10T09:10:50.742Z,99867.59
2022-09-10T09:13:26.326Z,99874.94
2022-09-10T09:16:05.552Z,99875.13
2022-09-10T09:19:06.547Z,99861.59
2022-09-10T09:21:45.981Z,99868.91
2022-09-10T09:24:22.370Z,99861.03
2022-09-10T09:26:57.468Z,99850.34
2022-09-10T09:29:34.634Z,99863.47
2022-09-10T09:32:05.950Z,99850.41
2022-09-10T09:34:40.468Z,99844.13
2022-09-10T09:37:18.350Z,99846.84
2022-09-10T09:39:59.485Z,99845.09
2022-09-10T09:42:46.700Z,99837.84
2022-09-10T09:45:45.586Z,99831.75
2022-09-10T09:48:18.284Z,99836.72
2022-09-10T09:50:50.104Z,99829.53
2022-09-10T09:53:26.086Z,99829.44
2022-09-10T09:55:58.450Z,99830.50
2022-09-10T09:58:26.339Z,99833.09
2022-09-10T10:01:05.242Z,99824.44
2022-09-10T10:03:54.501Z,99822.81
2022-09-10T10:06:24.901Z,99813.13
2022-09-10T10:09:02.973Z,99815.41
2022-09-10T10:11:42.048Z,99809.06
2022-09-10T10:14:31.444Z,99807.22
2022-09-10T10:17:00.990Z,99813.31
2022-09-10T10:19:40.058Z,99815.03
2022-09-10T10:22:18.787Z,99800.94
2022-09-10T10:24:48.522Z,99806.41
2022-09-10T10:27:20.560Z,99794.09
2022-09-10T10:30:02.826Z,99799.69
2022-09-10T10:32:38.908Z,99801.09
2022-09-10T10:35:24.459Z,99799.09
2022-09-10T10:38:18.838Z,99780.41
2022-09-10T10:40:56.728Z,99777.16
2022-09-10T10:43:44.659Z,99776.63
2022-09-10T10:46:22.598Z,99781.22
2022-09-10T10:49:15.835Z,99775.44
2022-09-10T10:51:48.335Z,99770.53
2022-09-10T10:54:37.473Z,99771.00
2022-09-10T10:57:31.512Z,99775.94
2022-09-10T11:00:14.004Z,99775.56
2022-09-10T11:03:12.930Z,99762.63
2022-09-10T11:05:45.563Z,99760.81
2022-09-10T11:08:19.512Z,99754.91
2022-09-10T11:11:00.456Z,99755.47
2022-09-10T11:13:36.759Z,99760.06
2022-09-10T11:16:06.376Z,99753.25
2022-09-10T11:18:48.762Z,99753.34
2022-09-10T11:21:18.540Z,99746.03
2022-09-10T11:23:49.575Z,99740.31
2022-09-10T11:26:25.047Z,99743.91
2022-09-10T11:28:52.462Z,99739.34
2022-09-10T11:31:31.576Z,99728.22
2022-09-10T11:34:05.450Z,99738.50
2022-09-10T11:36:46.663Z,99736.44
2022-09-10T11:39:31.973Z,99734.44
2022-09-10T11:42:03.443Z,99712.28
2022-09-10T11:45:00.963Z,99720.00
2022-09-10T11:47:33.329Z,99715.81
2022-09-10T11:50:01.073Z,99714.78
2022-09-10T11:52:31.428Z,99709.78
2022-09-10T11:54:58.655Z,99716.22
2022-09-10T11:57:38.869Z,99708.59
2022-09-10T12:00:09.938Z,99710.31
2022-09-10T12:02:39.480Z,99709.69
2022-09-10T12:05:40.509Z,99707.72
2022-09-10T12:08:10.596Z,99701.34
2022-09-10T12:11:25.007Z,99701.69
2022-09-10T12:13:52.820Z,99710.50
2022-09-10T12:16:51.910Z,99692.88
2022-09-10T12:19:24.498Z,99688.53
2022-09-10T12:21:55.131Z,99682.34
2022-09-10T12:24:32.093Z,99681.72
2022-09-10T12:27:00.659Z,99679.91
2022-09-10T12:29:31.273Z,99668.44
2022-09-10T12:32:28.600Z,99661.41
2022-09-10T12:35:31.235Z,99665.72
2022-09-10T12:38:43.688Z,99665.72
2022-09-10T12:41:14.902Z,99659.72
2022-09-10T12:43:41.679Z,99663.13
2022-09-10T12:46:08.641Z,99649.16
2022-09-10T12:48:40.038Z,99651.66
2022-09-10T12:51:19.196Z,99652.00
2022-09-10T12:54:01.987Z,99651.66
2022-09-10T12:56:50.058Z,99651.59
2022-09-10T12:59:19.932Z,99645.47
2022-09-10T13:01:51.518Z,99638.16
2022-09-10T13:04:29.987Z,99628.47
2022-09-10T13:07:21.634Z,99631.19
2022-09-10T13:10:01.012Z,99629.53
2022-09-10T13:12:29.184Z,99627.00
2022-09-10T13:14:57.736Z,99629.38
2022-09-10T13:17:57.432Z,99627.69
2022-09-10T13:20:26.880Z,99622.22
2022-09-10T13:23:04.294Z,99626.66
2022-09-10T13:25:37.523Z,99621.50
2022-09-10T13:28:36.984Z,99621.78
2022-09-10T13:31:11.346Z,99615.25
2022-09-10T13:33:58.858Z,99622.53
2022-09-10T13:36:37.507Z,99622.03
2022-09-10T13:39:41.355Z,99613.72
2022-09-10T13:42:36.029Z,99609.34
2022-09-10T13:45:17.682Z,99597.88
2022-09-10T13:48:14.888Z,99593.19
2022-09-10T13:51:18.949Z,99582.56
2022-09-10T13:53:49.111Z,99577.84
2022-09-10T13:56:26.747Z,99569.19
2022-09-10T13:59:02.124Z,99575.94
2022-09-10T14:01:49.301Z,99573.03
2022-09-10T14:04:26.587Z,99561.50
2022-09-10T14:07:13.138Z,99555.31
2022-09-10T14:09:46.514Z,99557.97
2022-09-10T14:12:14.962Z,99554.78
2022-09-10T14:14:51.041Z,99550.38
2022-09-10T14:17:25.714Z,99544.84
2022-09-10T14:19:59.295Z,99541.25
2022-09-10T14:22:27.086Z,99528.91
2022-09-10T14:24:56.185Z,99519.94
2022-09-10T14:27:22.850Z,99517.19
2022-09-10T14:29:50.423Z,99513.59
2022-09-10T14:32:22.893Z,99517.84
2022-09-10T14:34:49.651Z,99502.81
2022-09-10T14:37:39.590Z,99493.94
2022-09-10T14:40:19.383Z,99490.44
2022-09-10T14:42:48.939Z,99482.66
2022-09-10T14:45:46.566Z,99477.44
2022-09-10T14:48:38.746Z,99473.25
2022-09-10T14:51:37.723Z,99458.75
2022-09-10T14:54:04.473Z,99461.31
2022-09-10T14:56:35.781Z,99456.00
2022-09-10T14:59:23.162Z,99454.88
2022-09-10T15:01:50.161Z,99443.56
2022-09-10T15:04:26.725Z,99445.28
2022-09-10T15:06:58.574Z,99450.78
2022-09-10T15:09:27.501Z,99450.59
2022-09-10T15:11:59.098Z,99444.94
2022-09-10T15:14:26.142Z,99439.88
2022-09-10T15:16:52.953Z,99411.41
2022-09-10T15:19:20.651Z,99422.72
2022-09-10T15:21:48.243Z,99433.16
2022-09-10T15:24:20.707Z,99425.28
2022-09-10T15:26:48.605Z,99429.47
2022-09-10T15:29:16.129Z,99431.47
2022-09-10T15:31:43.762Z,99435.81
2022-09-10T15:34:11.394Z,99428.03
2022-09-10T15:36:40.448Z,99436.97
2022-09-10T15:39:08.707Z,99447.25
2022-09-10T15:41:35.579Z,99434.31
2022-09-10T15:44:03.329Z,99433.34
2022-09-10T15:46:30.527Z,99433.97
2022-09-10T15:48:59.524Z,99428.72
2022-09-10T15:51:26.960Z,99412.78
2022-09-10T15:53:54.661Z,99407.47
2022-09-10T15:56:24.869Z,99406.41
2022-09-10T15:58:55.143Z,99400.00
2022-09-10T16:01:24.284Z,99394.50
2022-09-10T16:03:55.447Z,99377.50
2022-09-10T16:06:23.941Z,99367.66
2022-09-10T16:09:01.975Z,99357.03
2022-09-10T16:11:33.925Z,99358.63
2022-09-10T16:14:05.175Z,99363.00
2022-09-10T16:16:33.324Z,99348.00
2022-09-10T16:19:00.830Z,99349.13
2022-09-10T16:21:32.945Z,99329.38
2022-09-10T16:24:01.020Z,99327.88
2022-09-10T16:26:30.950Z,99327.41
2022-09-10T16:29:02.821Z,99323.41
2022-09-10T16:31:32.445Z,99317.25
2022-09-10T16:34:02.570Z,99323.59
2022-09-10T16:36:33.672Z,99320.38
2022-09-10T16:39:05.104Z,99321.22
2022-09-10T16:41:33.081Z,99323.78
2022-09-10T16:44:00.651Z,99328.34
2022-09-10T16:46:28.163Z,99322.94
2022-09-10T16:48:55.931Z,99316.56
2022-09-10T16:51:24.798Z,99310.13
2022-09-10T16:54:03.060Z,99305.28
2022-09-10T16:56:50.761Z,99298.47
2022-09-10T16:59:25.866Z,99296.94
2022-09-10T17:01:53.269Z,99289.72
2022-09-10T17:04:28.333Z,99294.94
2022-09-10T17:06:57.001Z,99288.59
2022-09-10T17:09:24.898Z,99290.88
2022-09-10T17:11:51.981Z,99278.22
2022-09-10T17:14:19.248Z,99274.91
2022-09-10T17:16:47.970Z,99273.94
2022-09-10T17:19:18.498Z,99273.66
2022-09-10T17:21:55.173Z,99275.94
2022-09-10T17:24:23.908Z,99268.25
2022-09-10T17:26:51.542Z,99259.06
2022-09-10T17:29:22.309Z,99247.34
2022-09-10T17:31:52.115Z,99251.44
2022-09-10T17:34:24.520Z,99258.34
2022-09-10T17:36:51.912Z,99255.44
2022-09-10T17:39:18.971Z,99232.28
2022-09-10T17:41:46.157Z,99247.16
2022-09-10T17:44:13.661Z,99236.34
2022-09-10T17:46:42.925Z,99223.13
2022-09-10T17:49:12.401Z,99230.81
2022-09-10T17:51:39.082Z,99230.28
2022-09-10T17:54:05.863Z,99229.97
2022-09-10T17:56:32.535Z,99232.16
2022-09-10T17:59:04.152Z,99219.78
2022-09-10T18:01:37.849Z,99218.94
2022-09-10T18:04:06.009Z,99223.00
2022-09-10T18:06:35.668Z,99225.47
2022-09-10T18:09:03.910Z,99245.22
2022-09-10T18:11:32.874Z,99233.44
2022-09-10T18:14:00.055Z,99226.22
2022-09-10T18:16:29.434Z,99226.47
2022-09-10T18:19:01.871Z,99220.19
2022-09-10T18:21:31.094Z,99208.81
2022-09-10T18:24:00.530Z,99209.25
2022-09-10T18:26:29.991Z,99184.75
2022-09-10T18:29:04.675Z,99177.22
2022-09-10T18:31:43.686Z,99171.06
2022-09-10T18:34:22.622Z,99165.72
2022-09-10T18:36:55.319Z,99174.47
2022-09-10T18:39:23.294Z,99154.75
2022-09-10T18:41:50.069Z,99170.84
2022-09-10T18:44:23.912Z,99158.59
2022-09-10T18:46:52.792Z,99149.56
2022-09-10T18:49:21.793Z,99151.16
2022-09-10T18:51:52.378Z,99147.53
2022-09-10T18:54:21.020Z,99143.91
2022-09-10T18:56:49.231Z,99146.66
2022-09-10T18:59:20.631Z,99152.53
2022-09-10T19:01:48.890Z,99150.50
2022-09-10T19:04:24.562Z,99137.31
2022-09-10T19:06:52.242Z,99125.16
2022-09-10T19:09:20.555Z,99129.13
2022-09-10T19:11:49.484Z,99118.78
2022-09-10T19:14:22.133Z,99110.06
2022-09-10T19:16:51.252Z,99117.06
2022-09-10T19:19:23.307Z,99135.38
2022-09-10T19:21:53.566Z,99129.94
2022-09-10T19:24:32.872Z,99142.00
2022-09-10T19:27:00.367Z,99120.50
2022-09-10T19:29:27.290Z,99123.25
2022-09-10T19:31:54.800Z,99158.66
2022-09-10T19:34:22.640Z,99131.44
2022-09-10T19:36:49.493Z,99124.31
2022-09-10T19:39:17.297Z,99134.22
2022-09-10T19:41:45.423Z,99135.03
2022-09-10T19:44:14.128Z,99135.16
2022-09-10T19:46:42.553Z,99139.44
2022-09-10T19:49:10.194Z,99116.63
2022-09-10T19:51:38.678Z,99125.34
2022-09-10T19:54:06.823Z,99127.28
2022-09-10T19:56:40.067Z,99139.44
2022-09-10T19:59:10.004Z,99140.69
2022-09-10T20:01:40.159Z,99129.00
2022-09-10T20:04:09.699Z,99118.75
2022-09-10T20:06:37.337Z,99123.53
2022-09-10T20:09:05.713Z,99119.16
2022-09-10T20:11:35.319Z,99106.56
2022-09-10T20:14:07.884Z,99094.25
2022-09-10T20:16:39.659Z,99089.13
2022-09-10T20:19:07.600Z,99085.50
2022-09-10T20:21:35.484Z,99103.56
2022-09-10T20:24:02.245Z,99075.50
2022-09-10T20:26:34.288Z,99070.56
2022-09-10T20:29:06.842Z,99083.56
2022-09-10T20:31:36.021Z,99077.69
2022-09-10T20:34:05.352Z,99069.56
2022-09-10T20:36:33.509Z,99059.91
2022-09-10T20:39:00.362Z,99067.16
2022-09-10T20:41:30.721Z,99056.03
2022-09-10T20:43:59.449Z,99077.22
2022-09-10T20:46:27.890Z,99064.78
2022-09-10T20:48:55.387Z,99064.91
2022-09-10T20:51:22.350Z,99053.50
2022-09-10T20:53:49.097Z,99065.28
2022-09-10T20:56:19.566Z,99067.00
2022-09-10T20:58:46.896Z,99051.91
2022-09-10T21:01:20.290Z,99065.59
2022-09-10T21:03:49.530Z,99037.00
2022-09-10T21:06:21.420Z,99055.19
2022-09-10T21:08:48.806Z,99054.13
2022-09-10T21:11:18.224Z,99048.31
2022-09-10T21:13:46.066Z,99046.34
2022-09-10T21:16:15.787Z,99040.06
2022-09-10T21:18:48.764Z,99041.97
2022-09-10T21:21:20.774Z,99041.22
2022-09-10T21:23:50.227Z,99031.94
2022-09-10T21:26:20.713Z,99039.81
2022-09-10T21:28:48.273Z,99043.88
2022-09-10T21:31:15.083Z,99031.25
2022-09-10T21:33:43.380Z,99037.69
2022-09-10T21:36:18.204Z,99019.88
2022-09-10T21:38:55.858Z,99027.94
2022-09-10T21:41:34.227Z,99027.06
2022-09-10T21:44:03.066Z,99005.38
2022-09-10T21:46:30.275Z,99012.59
2022-09-10T21:48:57.119Z,99016.28
2022-09-10T21:51:24.201Z,99019.44
2022-09-10T21:53:55.748Z,99008.13
2022-09-10T21:56:23.867Z,99013.88
2022-09-10T21:58:50.777Z,99026.81
2022-09-10T22:01:20.928Z,99015.34
2022-09-10T22:03:49.185Z,99019.63
2022-09-10T22:06:35.376Z,99013.44
2022-09-10T22:09:08.242Z,99016.00
2022-09-10T22:11:39.371Z,99010.47
2022-09-10T22:14:20.971Z,99007.88
2022-09-10T22:16:47.943Z,99010.03
2022-09-10T22:19:18.170Z,99008.56
2022-09-10T22:21:45.767Z,98994.19
2022-09-10T22:24:14.688Z,99003.78
2022-09-10T22:26:43.889Z,98991.53
2022-09-10T22:29:12.493Z,98972.75
2022-09-10T22:31:39.476Z,98988.28
2022-09-10T22:34:08.685Z,98976.13
2022-09-10T22:36:38.052Z,98976.56
2022-09-10T22:39:06.282Z,98979.22
2022-09-10T22:41:34.832Z,98961.50
2022-09-10T22:44:02.519Z,98962.25
2022-09-10T22:46:30.059Z,98963.28
2022-09-10T22:48:56.947Z,98950.88
2022-09-10T22:51:26.815Z,98953.59
2022-09-10T22:53:55.301Z,98949.34
2022-09-10T22:56:23.784Z,98937.59
2022-09-10T22:58:53.112Z,98935.03
2022-09-10T23:01:22.855Z,98942.56
2022-09-10T23:03:50.213Z,98926.63
2022-09-10T23:06:19.544Z,98928.75
2022-09-10T23:08:50.281Z,98928.75
2022-09-10T23:11:29.439Z,98925.13
2022-09-10T23:13:59.387Z,98911.22
2022-09-10T23:16:38.232Z,98915.34
2022-09-10T23:19:07.579Z,98919.94
2022-09-10T23:21:35.413Z,98927.69
2022-09-10T23:24:04.974Z,98921.75
2022-09-10T23:26:31.875Z,98922.28
2022-09-10T23:29:00.361Z,98920.44
2022-09-10T23:31:28.985Z,98918.00
2022-09-10T23:34:01.328Z,98917.47
2022-09-10T23:36:33.716Z,98905.38
2022-09-10T23:39:04.130Z,98914.59
2022-09-10T23:41:30.921Z,98913.34
2022-09-10T23:43:57.640Z,98899.84
2022-09-10T23:46:25.090Z,98894.66
2022-09-10T23:48:52.112Z,98891.22
2022-09-10T23:51:20.455Z,98894.53
2022-09-10T23:53:48.839Z,98894.00
2022-09-10T23:56:18.364Z,98892.63
2022-09-10T23:58:45.726Z,98887.22
